Hlavní strana
METAR-TAF:

METAR-TAF

Letiště :

Weno, Mikronésie

zeměpisná šířka: 07-28N, zeměpisná délka: 151-51E, výška: 3 m

Aktuální stav počasí

Zpráva byla vytvořena před 42 minutami, v 03:52 UTC
vítr z různých směrů 4 kt
Teplota 32°C
Vlhkost vzduchu 84%
Tlak 1007 hPa
Viditelnost: 24.1 km
Skoro jasno ve výšce 1400 ft
Polojasno ve výšce 12000 ft
Zataženo ve výšce 28000 ft

METAR: PTKK 170352Z VRB04KT 15SM FEW014 SCT120 OVC280 32/29 A2973 RMK SLP069 T03170291

Čas: 14:34 (04:34 UTC)

Předpověď počasí

Zpráva byla vytvořena před 4 hodinami a 56 minutami, v 23:38 UTC
Předpověď platná od 17 v 00 UTC do 17 v 24 UTC
vítr z různých směrů 6 kt
Viditelnost: 10 km
Skoro jasno ve výšce 1200 ft
Polojasno ve výšce 3000 ft
Oblačno až skoro zataženo ve výšce 12000 ft
přeháňky v blízkosti

TAF: PTKK 162338Z 1700/1724 VRB06KT P6SM VCSH FEW012 SCT030 BKN120

Stav a předpovědi počasí z více než 4 000 letišť (zprávy METAR a TAF).

Červené a žluté tečky na mapě představují dostupné meteorologické stanice.

Když kurzor umístíte na tečku, zobrazí se název stanice.

Pak kliknutím zobrazíte stav a předpověď počasí.

Chcete-li změnit mapu, kliknutím na zelené tlačítko se znaménkem +mapu přiblížíte, kliknutím na zelené tlačítko se znaménkem – mapu oddálíte a kliknutím na zelené šipky přejdete na sousední mapy.


METAR-TAF: